Time;durP1;ratioP1;P1;durP2;ratioP2;P2;SDS_P1;SDS_P2;PMS_P1;PMS_P2;Temp;Humidity;BMP_temperature;BMP_pressure;BME280_temperature;BME280_humidity;BME280_pressure;Samples;Min_cycle;Max_cycle;Signal;HPM_P1;HPM_P2
2021/10/25 00:01:31;;;;;;;5.43;3.83;;;;;;;;;;6276675;22;20147;-60
2021/10/25 00:03:57;;;;;;;6.30;4.13;;;;;;;;;;6276795;22;20165;-59
2021/10/25 00:06:23;;;;;;;9.98;4.65;;;;;;;;;;6276459;22;20179;-60
2021/10/25 00:08:49;;;;;;;5.93;3.92;;;;;;;;;;6276366;22;20143;-60
2021/10/25 00:11:15;;;;;;;6.75;4.40;;;;;;;;;;6276326;22;20196;-60
2021/10/25 00:13:41;;;;;;;8.10;4.00;;;;;;;;;;6276709;22;20139;-60
2021/10/25 00:16:07;;;;;;;7.75;4.32;;;;;;;;;;6276503;22;20144;-61
2021/10/25 00:18:34;;;;;;;8.20;4.90;;;;;;;;;;6276372;22;20214;-60
2021/10/25 00:21:00;;;;;;;8.68;4.53;;;;;;;;;;6276877;22;20151;-60
2021/10/25 00:23:26;;;;;;;7.65;4.20;;;;;;;;;;6284868;22;20532;-61
2021/10/25 00:25:52;;;;;;;8.35;3.95;;;;;;;;;;6276320;22;20159;-60
2021/10/25 00:28:18;;;;;;;7.53;4.57;;;;;;;;;;6276643;22;20155;-61
2021/10/25 00:30:44;;;;;;;7.97;4.70;;;;;;;;;;6276179;22;20139;-61
2021/10/25 00:33:10;;;;;;;6.85;4.45;;;;;;;;;;6276145;22;20140;-60
2021/10/25 00:35:36;;;;;;;8.60;4.38;;;;;;;;;;6276131;22;20146;-60
2021/10/25 00:38:03;;;;;;;8.07;4.15;;;;;;;;;;6275925;22;20154;-60
2021/10/25 00:40:29;;;;;;;6.65;4.65;;;;;;;;;;6276135;22;20144;-60
2021/10/25 00:42:55;;;;;;;6.13;4.22;;;;;;;;;;6275976;22;20148;-60
2021/10/25 00:45:21;;;;;;;10.05;4.53;;;;;;;;;;6276101;22;20151;-60
2021/10/25 00:47:47;;;;;;;10.38;4.97;;;;;;;;;;6277085;22;20170;-61
2021/10/25 00:50:13;;;;;;;6.22;4.60;;;;;;;;;;6278637;22;20171;-61
2021/10/25 00:52:40;;;;;;;5.57;4.15;;;;;;;;;;6278292;22;20136;-60
2021/10/25 00:55:08;;;;;;;8.57;4.10;;;;;;;;;;6278081;22;20423;-61
2021/10/25 00:57:34;;;;;;;6.03;4.13;;;;;;;;;;6278178;22;20155;-60
2021/10/25 01:00:00;;;;;;;10.95;4.70;;;;;;;;;;6278286;22;20200;-60
2021/10/25 01:02:26;;;;;;;6.78;4.22;;;;;;;;;;6278511;22;20147;-59
2021/10/25 01:04:52;;;;;;;7.95;4.65;;;;;;;;;;6278223;22;20606;-59
2021/10/25 01:07:18;;;;;;;9.77;4.55;;;;;;;;;;6278666;22;20600;-59
2021/10/25 01:09:44;;;;;;;6.35;4.15;;;;;;;;;;6278527;22;20143;-59
2021/10/25 01:12:10;;;;;;;8.23;4.47;;;;;;;;;;6278455;22;20154;-59
2021/10/25 01:14:36;;;;;;;8.00;4.20;;;;;;;;;;6278640;22;20144;-59
2021/10/25 01:17:03;;;;;;;7.22;4.45;;;;;;;;;;6277908;22;20150;-60
2021/10/25 01:19:29;;;;;;;8.82;4.50;;;;;;;;;;6277754;22;20454;-60
2021/10/25 01:21:55;;;;;;;7.25;4.15;;;;;;;;;;6277755;22;20239;-59
2021/10/25 01:24:21;;;;;;;8.70;4.50;;;;;;;;;;6278028;22;20151;-59
2021/10/25 01:26:47;;;;;;;8.20;4.75;;;;;;;;;;6277557;22;20171;-60
2021/10/25 01:29:13;;;;;;;7.75;4.63;;;;;;;;;;6277757;22;20142;-60
2021/10/25 01:31:39;;;;;;;9.30;4.70;;;;;;;;;;6277924;22;20139;-60
2021/10/25 01:34:05;;;;;;;8.95;4.30;;;;;;;;;;6277617;22;20136;-60
2021/10/25 01:36:31;;;;;;;7.65;4.57;;;;;;;;;;6277821;22;20246;-60
2021/10/25 01:38:58;;;;;;;9.80;4.50;;;;;;;;;;6277930;22;20428;-60
2021/10/25 01:41:24;;;;;;;7.47;4.20;;;;;;;;;;6278002;22;20143;-60
2021/10/25 01:43:49;;;;;;;8.13;4.63;;;;;;;;;;6277288;22;20217;-59
2021/10/25 01:46:15;;;;;;;9.60;4.65;;;;;;;;;;6277565;22;20186;-60
2021/10/25 01:48:41;;;;;;;7.20;4.38;;;;;;;;;;6277248;22;20136;-60
2021/10/25 01:51:08;;;;;;;6.38;4.45;;;;;;;;;;6277384;22;20261;-60
2021/10/25 01:53:37;;;;;;;7.95;4.90;;;;;;;;;;6277877;22;20143;-60
2021/10/25 01:56:03;;;;;;;7.28;4.38;;;;;;;;;;6277753;22;20289;-60
2021/10/25 01:58:29;;;;;;;7.25;4.78;;;;;;;;;;6277461;22;20144;-60
2021/10/25 02:00:55;;;;;;;8.52;4.47;;;;;;;;;;6277280;22;20221;-60
2021/10/25 02:03:21;;;;;;;8.73;4.20;;;;;;;;;;6277167;22;20140;-60
2021/10/25 02:05:47;;;;;;;7.32;4.65;;;;;;;;;;6277267;22;20150;-60
2021/10/25 02:08:13;;;;;;;9.50;5.00;;;;;;;;;;6277240;22;20193;-60
2021/10/25 02:10:39;;;;;;;5.43;4.15;;;;;;;;;;6277687;22;20140;-60
2021/10/25 02:13:05;;;;;;;8.45;4.90;;;;;;;;;;6276945;22;20447;-60
2021/10/25 02:15:31;;;;;;;11.70;5.03;;;;;;;;;;6277342;22;20190;-59
2021/10/25 02:17:57;;;;;;;8.65;4.82;;;;;;;;;;6276975;22;20504;-60
2021/10/25 02:20:24;;;;;;;9.65;5.03;;;;;;;;;;6277331;22;20140;-59
2021/10/25 02:22:50;;;;;;;9.10;4.50;;;;;;;;;;6276921;22;20154;-60
2021/10/25 02:25:16;;;;;;;7.65;4.57;;;;;;;;;;6277113;22;20139;-60
2021/10/25 02:27:42;;;;;;;6.78;4.43;;;;;;;;;;6277062;22;20563;-60
2021/10/25 02:30:08;;;;;;;9.15;5.07;;;;;;;;;;6277080;22;20198;-60
2021/10/25 02:32:34;;;;;;;7.93;4.82;;;;;;;;;;6276689;22;20140;-59
2021/10/25 02:35:00;;;;;;;7.50;4.97;;;;;;;;;;6276665;22;20217;-60
2021/10/25 02:37:26;;;;;;;6.35;4.60;;;;;;;;;;6276629;22;20548;-60
2021/10/25 02:39:53;;;;;;;6.57;4.63;;;;;;;;;;6277017;22;20170;-60
2021/10/25 02:42:19;;;;;;;8.38;5.35;;;;;;;;;;6276901;22;20144;-60
2021/10/25 02:44:45;;;;;;;10.25;5.22;;;;;;;;;;6276523;22;20577;-60
2021/10/25 02:47:11;;;;;;;9.20;4.82;;;;;;;;;;6276861;22;20575;-59
2021/10/25 02:49:37;;;;;;;9.77;5.05;;;;;;;;;;6276495;22;20355;-60
2021/10/25 02:52:04;;;;;;;9.55;5.15;;;;;;;;;;6276903;22;20217;-57
2021/10/25 02:54:29;;;;;;;8.60;4.95;;;;;;;;;;6276385;22;20186;-60
2021/10/25 02:56:56;;;;;;;11.77;5.32;;;;;;;;;;6276847;22;20148;-60
2021/10/25 02:59:21;;;;;;;10.75;5.90;;;;;;;;;;6276662;22;20157;-58
2021/10/25 03:01:47;;;;;;;11.75;5.15;;;;;;;;;;6276570;22;20178;-59
2021/10/25 03:04:14;;;;;;;7.45;4.88;;;;;;;;;;6276382;22;20144;-60
2021/10/25 03:06:40;;;;;;;9.35;5.45;;;;;;;;;;6276804;22;20179;-61
2021/10/25 03:09:07;;;;;;;11.60;5.55;;;;;;;;;;6276326;22;20243;-60
2021/10/25 03:11:33;;;;;;;8.13;5.13;;;;;;;;;;6276529;22;20148;-60
2021/10/25 03:13:59;;;;;;;10.52;5.13;;;;;;;;;;6276655;22;20148;-57
2021/10/25 03:16:25;;;;;;;7.53;4.82;;;;;;;;;;6276811;22;20555;-59
2021/10/25 03:18:51;;;;;;;9.85;5.15;;;;;;;;;;6276622;22;20148;-58
2021/10/25 03:21:18;;;;;;;10.88;4.88;;;;;;;;;;6276682;22;20574;-60
2021/10/25 03:23:45;;;;;;;10.63;4.63;;;;;;;;;;6277488;22;20151;-61
2021/10/25 03:26:11;;;;;;;9.25;5.00;;;;;;;;;;6280333;22;20266;-61
2021/10/25 03:28:37;;;;;;;7.80;5.32;;;;;;;;;;6255347;22;20150;-61
2021/10/25 03:31:04;;;;;;;8.13;4.82;;;;;;;;;;6282137;22;20143;-60
2021/10/25 03:33:33;;;;;;;8.43;4.75;;;;;;;;;;6287540;22;20143;-60
2021/10/25 03:35:59;;;;;;;11.63;5.10;;;;;;;;;;6287048;22;20146;-60
2021/10/25 03:38:25;;;;;;;11.88;5.10;;;;;;;;;;6284079;22;20136;-61
2021/10/25 03:40:53;;;;;;;10.23;5.10;;;;;;;;;;6288278;22;20139;-61
2021/10/25 03:43:21;;;;;;;10.18;5.45;;;;;;;;;;6298834;22;20132;-61
2021/10/25 03:46:04;;;;;;;12.43;5.30;;;;;;;;;;6297627;22;20146;-61
2021/10/25 03:48:37;;;;;;;9.57;5.38;;;;;;;;;;6298284;22;20705;-60
2021/10/25 03:51:03;;;;;;;10.63;5.65;;;;;;;;;;6297332;22;20124;-61
2021/10/25 03:53:46;;;;;;;12.98;5.97;;;;;;;;;;6278110;22;20214;-61
2021/10/25 03:56:27;;;;;;;9.02;5.30;;;;;;;;;;6276266;22;20135;-61
2021/10/25 03:59:08;;;;;;;11.95;6.05;;;;;;;;;;6276503;22;20155;-62
2021/10/25 04:01:56;;;;;;;7.50;4.85;;;;;;;;;;6276836;22;20135;-62
2021/10/25 04:12:43;;;;;;;9.50;5.13;;;;;;;;;;6276606;22;20536;-62
2021/10/25 04:26:28;;;;;;;8.15;5.30;;;;;;;;;;6278975;22;20484;-62
2021/10/25 04:28:54;;;;;;;11.40;5.45;;;;;;;;;;6279089;22;20215;-62
2021/10/25 04:31:20;;;;;;;8.65;5.03;;;;;;;;;;6278839;22;20164;-62
2021/10/25 04:33:46;;;;;;;10.70;5.45;;;;;;;;;;6278551;22;20238;-62
2021/10/25 04:36:13;;;;;;;9.15;5.25;;;;;;;;;;6279468;22;20197;-62
2021/10/25 04:38:39;;;;;;;9.35;5.32;;;;;;;;;;6278925;22;20144;-62
2021/10/25 04:41:04;;;;;;;8.15;5.47;;;;;;;;;;6279000;22;20170;-61
2021/10/25 04:43:31;;;;;;;7.63;5.22;;;;;;;;;;6278461;22;20481;-62
2021/10/25 04:45:57;;;;;;;9.90;5.70;;;;;;;;;;6278478;22;20147;-60
2021/10/25 04:48:23;;;;;;;9.65;5.63;;;;;;;;;;6278810;22;20224;-62
2021/10/25 04:50:49;;;;;;;12.90;6.05;;;;;;;;;;6278392;22;20170;-61
2021/10/25 04:53:15;;;;;;;9.50;5.65;;;;;;;;;;6278605;22;20140;-61
2021/10/25 04:55:41;;;;;;;12.93;6.40;;;;;;;;;;6278479;22;20144;-62
2021/10/25 04:58:07;;;;;;;9.38;5.55;;;;;;;;;;6278443;22;20144;-61
2021/10/25 05:00:33;;;;;;;9.45;5.35;;;;;;;;;;6278624;22;20151;-62
2021/10/25 05:02:59;;;;;;;10.00;5.78;;;;;;;;;;6278528;22;20589;-62
2021/10/25 05:05:25;;;;;;;11.80;5.40;;;;;;;;;;6278621;22;20144;-62
2021/10/25 05:07:51;;;;;;;10.35;5.63;;;;;;;;;;6278781;22;20211;-62
2021/10/25 05:10:17;;;;;;;11.52;5.15;;;;;;;;;;6278049;22;20135;-62
2021/10/25 05:12:43;;;;;;;10.18;5.82;;;;;;;;;;6278369;22;20139;-62
2021/10/25 05:15:09;;;;;;;7.93;5.78;;;;;;;;;;6278010;22;20140;-62
2021/10/25 05:17:35;;;;;;;12.88;6.20;;;;;;;;;;6278408;22;20167;-61
2021/10/25 05:20:01;;;;;;;12.18;6.13;;;;;;;;;;6277908;22;20143;-61
2021/10/25 05:22:27;;;;;;;9.20;6.20;;;;;;;;;;6277686;22;20435;-62
2021/10/25 05:24:53;;;;;;;10.40;5.97;;;;;;;;;;6278092;22;20151;-62
2021/10/25 05:27:21;;;;;;;10.07;5.25;;;;;;;;;;6278067;22;20175;-62
2021/10/25 05:29:47;;;;;;;9.07;5.65;;;;;;;;;;6278123;22;20151;-61
2021/10/25 05:32:13;;;;;;;8.82;5.53;;;;;;;;;;6277633;22;20135;-61
2021/10/25 05:34:39;;;;;;;7.20;5.45;;;;;;;;;;6277787;22;20170;-62
2021/10/25 05:37:06;;;;;;;9.77;5.57;;;;;;;;;;6278080;22;20143;-62
2021/10/25 05:39:33;;;;;;;12.27;5.53;;;;;;;;;;6277939;22;20147;-62
2021/10/25 05:42:02;;;;;;;9.50;5.55;;;;;;;;;;6277774;22;20185;-62
2021/10/25 05:44:29;;;;;;;9.60;5.63;;;;;;;;;;6277437;22;20685;-61
2021/10/25 05:46:55;;;;;;;13.07;5.45;;;;;;;;;;6277808;22;20313;-62
2021/10/25 05:49:21;;;;;;;12.55;6.03;;;;;;;;;;6277668;22;20198;-61
2021/10/25 05:51:47;;;;;;;8.63;5.13;;;;;;;;;;6277854;22;20163;-62
2021/10/25 05:54:13;;;;;;;11.07;5.45;;;;;;;;;;6277675;22;20426;-62
2021/10/25 05:56:39;;;;;;;8.45;4.90;;;;;;;;;;6277052;22;20140;-62
2021/10/25 05:59:05;;;;;;;11.73;5.78;;;;;;;;;;6277486;22;20218;-61
2021/10/25 06:02:23;;;;;;;9.75;5.55;;;;;;;;;;6277818;22;20157;-61
2021/10/25 06:04:21;;;;;;;9.23;5.60;;;;;;;;;;6265594;22;20157;-62
2021/10/25 06:06:47;;;;;;;10.20;5.40;;;;;;;;;;6277003;22;20561;-61
2021/10/25 06:09:13;;;;;;;10.23;5.68;;;;;;;;;;6277474;22;20167;-62
2021/10/25 06:11:39;;;;;;;11.77;5.60;;;;;;;;;;6277440;22;20568;-62
2021/10/25 06:14:07;;;;;;;9.77;6.00;;;;;;;;;;6277228;22;20140;-62
2021/10/25 06:16:39;;;;;;;9.40;5.22;;;;;;;;;;6277498;22;20148;-61
2021/10/25 06:19:06;;;;;;;7.93;5.25;;;;;;;;;;6277393;22;20631;-60
2021/10/25 06:21:32;;;;;;;9.10;5.90;;;;;;;;;;6277042;22;20276;-62
2021/10/25 06:23:59;;;;;;;10.43;6.47;;;;;;;;;;6276909;22;20611;-60
2021/10/25 06:26:26;;;;;;;7.88;5.07;;;;;;;;;;6276692;22;20599;-61
2021/10/25 06:28:52;;;;;;;12.02;5.85;;;;;;;;;;6277208;22;20426;-61
2021/10/25 06:31:18;;;;;;;9.98;5.47;;;;;;;;;;6276805;22;20147;-60
2021/10/25 06:33:46;;;;;;;10.15;5.40;;;;;;;;;;6277540;22;20616;-61
2021/10/25 06:36:12;;;;;;;7.47;5.22;;;;;;;;;;6278220;22;20148;-61
2021/10/25 06:38:43;;;;;;;9.25;5.18;;;;;;;;;;6277810;22;20139;-61
2021/10/25 06:41:10;;;;;;;8.93;5.18;;;;;;;;;;6276990;22;20135;-61
2021/10/25 06:43:36;;;;;;;10.45;5.38;;;;;;;;;;6276558;22;20140;-61
2021/10/25 06:46:02;;;;;;;7.80;5.40;;;;;;;;;;6276632;22;20167;-60
2021/10/25 06:48:30;;;;;;;10.65;5.63;;;;;;;;;;6277400;22;20139;-61
2021/10/25 06:50:56;;;;;;;7.80;5.45;;;;;;;;;;6276804;22;20201;-60
2021/10/25 06:53:22;;;;;;;9.93;6.07;;;;;;;;;;6278149;22;20148;-61
2021/10/25 06:55:48;;;;;;;8.55;5.05;;;;;;;;;;6277265;22;20193;-61
2021/10/25 06:58:14;;;;;;;9.40;5.32;;;;;;;;;;6277404;22;20580;-62
2021/10/25 07:00:40;;;;;;;10.10;5.18;;;;;;;;;;6276816;22;20144;-62
2021/10/25 07:03:07;;;;;;;9.27;5.53;;;;;;;;;;6277377;22;20144;-63
2021/10/25 07:05:35;;;;;;;8.50;5.25;;;;;;;;;;6277231;22;20493;-61
2021/10/25 07:08:01;;;;;;;10.68;5.55;;;;;;;;;;6276978;22;20182;-61
2021/10/25 07:10:28;;;;;;;7.25;5.38;;;;;;;;;;6276630;22;20202;-62
2021/10/25 07:12:54;;;;;;;8.90;5.20;;;;;;;;;;6276867;22;20573;-62
2021/10/25 07:15:20;;;;;;;11.75;5.50;;;;;;;;;;6277352;22;20241;-61
2021/10/25 07:18:35;;;;;;;7.75;5.03;;;;;;;;;;6277864;22;20497;-61
2021/10/25 07:20:46;;;;;;;8.70;5.07;;;;;;;;;;6265268;22;20175;-61
2021/10/25 07:23:38;;;;;;;8.38;5.38;;;;;;;;;;6276872;22;20138;-62
2021/10/25 07:26:42;;;;;;;7.88;5.22;;;;;;;;;;6276432;22;20201;-62
2021/10/25 08:07:20;;;;;;;9.20;5.25;;;;;;;;;;6278235;22;20170;-62
2021/10/25 08:09:50;;;;;;;7.15;5.18;;;;;;;;;;6278496;22;20408;-62
2021/10/25 08:12:18;;;;;;;10.10;5.10;;;;;;;;;;6278506;22;20150;-62
2021/10/25 08:14:52;;;;;;;8.40;5.25;;;;;;;;;;6278830;22;20251;-62
2021/10/25 08:17:19;;;;;;;6.55;4.38;;;;;;;;;;6279119;22;20135;-62
2021/10/25 08:19:46;;;;;;;6.53;4.57;;;;;;;;;;6279085;22;20158;-61
2021/10/25 08:22:15;;;;;;;6.95;5.28;;;;;;;;;;6278241;22;20139;-61
2021/10/25 08:24:43;;;;;;;7.13;4.90;;;;;;;;;;6278420;22;20215;-62
2021/10/25 08:27:09;;;;;;;10.15;4.97;;;;;;;;;;6277953;22;20514;-62
2021/10/25 08:29:35;;;;;;;8.13;5.43;;;;;;;;;;6278440;22;20147;-62
2021/10/25 08:34:53;;;;;;;7.18;5.22;;;;;;;;;;6289101;22;20141;-62
2021/10/25 08:39:58;;;;;;;6.30;4.93;;;;;;;;;;6278781;22;20166;-62
2021/10/25 08:42:26;;;;;;;8.73;4.82;;;;;;;;;;6278116;22;20567;-62
2021/10/25 08:45:01;;;;;;;11.18;5.57;;;;;;;;;;6278555;22;20222;-62
2021/10/25 08:47:32;;;;;;;7.72;5.00;;;;;;;;;;6277803;22;20759;-62
2021/10/25 08:49:58;;;;;;;10.00;5.43;;;;;;;;;;6278438;22;20214;-62
2021/10/25 08:52:24;;;;;;;9.00;5.22;;;;;;;;;;6277919;22;20170;-62
2021/10/25 08:54:51;;;;;;;10.32;5.40;;;;;;;;;;6278258;22;20155;-62
2021/10/25 08:57:18;;;;;;;9.55;5.35;;;;;;;;;;6278108;22;20183;-62
2021/10/25 08:59:55;;;;;;;9.50;6.10;;;;;;;;;;6278056;22;20144;-62
2021/10/25 09:02:21;;;;;;;7.40;5.25;;;;;;;;;;6277684;22;20143;-62
2021/10/25 09:04:58;;;;;;;9.27;5.50;;;;;;;;;;6277614;22;20144;-62
2021/10/25 09:07:24;;;;;;;7.68;5.47;;;;;;;;;;6277464;22;20392;-62
2021/10/25 09:09:49;;;;;;;7.68;5.32;;;;;;;;;;6277702;22;20214;-62
2021/10/25 09:12:16;;;;;;;8.10;5.82;;;;;;;;;;6277879;22;20147;-62
2021/10/25 09:14:42;;;;;;;11.45;6.25;;;;;;;;;;6278226;22;20158;-62
2021/10/25 09:17:09;;;;;;;11.75;5.65;;;;;;;;;;6277611;22;20147;-62
2021/10/25 09:19:36;;;;;;;9.07;5.43;;;;;;;;;;6278064;22;20151;-61
2021/10/25 09:22:05;;;;;;;9.25;6.05;;;;;;;;;;6278135;22;20154;-61
2021/10/25 09:24:32;;;;;;;8.68;6.05;;;;;;;;;;6277890;22;20206;-62
2021/10/25 09:27:01;;;;;;;8.90;5.63;;;;;;;;;;6277441;22;20171;-61
2021/10/25 09:29:30;;;;;;;10.63;6.32;;;;;;;;;;6277376;22;20144;-61
2021/10/25 09:31:57;;;;;;;8.30;5.63;;;;;;;;;;6277707;22;20139;-61
2021/10/25 09:34:36;;;;;;;7.57;5.35;;;;;;;;;;6277796;22;20173;-61
2021/10/25 09:37:07;;;;;;;8.35;5.47;;;;;;;;;;6277541;22;20173;-61
2021/10/25 09:39:41;;;;;;;8.43;5.95;;;;;;;;;;6277461;22;20621;-62
2021/10/25 09:50:11;;;;;;;8.80;6.25;;;;;;;;;;6277798;22;20205;-61
2021/10/25 09:52:40;;;;;;;8.32;5.78;;;;;;;;;;6276980;22;20469;-61
2021/10/25 09:55:08;;;;;;;9.15;5.82;;;;;;;;;;6276850;22;20512;-61
2021/10/25 09:57:39;;;;;;;11.48;5.95;;;;;;;;;;6277194;22;20164;-62
2021/10/25 10:00:07;;;;;;;8.40;5.78;;;;;;;;;;6277070;22;20524;-61
2021/10/25 10:02:34;;;;;;;10.48;5.60;;;;;;;;;;6276351;22;20450;-61
2021/10/25 10:05:03;;;;;;;6.00;5.28;;;;;;;;;;6277575;22;20201;-61
2021/10/25 10:07:29;;;;;;;7.82;5.60;;;;;;;;;;6276777;22;20478;-59
2021/10/25 10:09:55;;;;;;;9.05;5.47;;;;;;;;;;6276587;22;20167;-61
2021/10/25 10:12:23;;;;;;;7.63;5.72;;;;;;;;;;6276840;22;20378;-63
2021/10/25 10:14:54;;;;;;;9.32;6.05;;;;;;;;;;6276988;22;20136;-62
2021/10/25 10:17:27;;;;;;;10.82;6.57;;;;;;;;;;6277000;22;20498;-62
2021/10/25 10:19:53;;;;;;;9.45;5.90;;;;;;;;;;6276491;22;20135;-62
2021/10/25 10:22:20;;;;;;;11.63;6.13;;;;;;;;;;6277069;22;20421;-62
2021/10/25 10:24:48;;;;;;;8.98;5.90;;;;;;;;;;6276523;22;20205;-62
2021/10/25 10:27:19;;;;;;;7.80;5.68;;;;;;;;;;6276354;22;20334;-62
2021/10/25 10:29:49;;;;;;;9.40;6.43;;;;;;;;;;6276812;22;20128;-62
2021/10/25 10:32:16;;;;;;;8.90;5.97;;;;;;;;;;6276734;22;20539;-63
2021/10/25 10:34:45;;;;;;;8.90;5.90;;;;;;;;;;6276997;22;20151;-60
2021/10/25 10:37:16;;;;;;;10.57;6.30;;;;;;;;;;6276962;22;20774;-61
2021/10/25 10:39:43;;;;;;;10.20;6.00;;;;;;;;;;6277034;22;20150;-62
2021/10/25 10:42:09;;;;;;;10.20;6.30;;;;;;;;;;6276825;22;20535;-61
2021/10/25 10:44:35;;;;;;;9.32;6.00;;;;;;;;;;6276738;22;20140;-63
2021/10/25 10:47:08;;;;;;;7.82;5.85;;;;;;;;;;6277201;22;20174;-62
2021/10/25 10:49:42;;;;;;;11.85;6.50;;;;;;;;;;6277156;22;20120;-63
2021/10/25 10:52:44;;;;;;;7.60;6.40;;;;;;;;;;6277376;22;20433;-62
2021/10/25 10:55:26;;;;;;;9.52;5.30;;;;;;;;;;6278996;22;20234;-62
2021/10/25 11:00:25;;;;;;;9.18;6.15;;;;;;;;;;6278996;22;20225;-63
2021/10/25 11:02:55;;;;;;;7.68;5.60;;;;;;;;;;6279390;22;20148;-64
2021/10/25 11:05:35;;;;;;;7.45;6.15;;;;;;;;;;6282202;22;20147;-63
2021/10/25 11:08:07;;;;;;;8.98;6.15;;;;;;;;;;6281050;22;20217;-64
2021/10/25 11:10:33;;;;;;;11.43;6.55;;;;;;;;;;6282764;22;20545;-63
2021/10/25 11:13:05;;;;;;;9.05;6.03;;;;;;;;;;6285730;22;20142;-63
2021/10/25 11:15:42;;;;;;;9.57;6.97;;;;;;;;;;6297960;22;20269;-64
2021/10/25 11:18:08;;;;;;;8.30;6.15;;;;;;;;;;6293522;22;20139;-63
2021/10/25 11:20:35;;;;;;;7.80;5.68;;;;;;;;;;6291214;22;20163;-63
2021/10/25 11:23:05;;;;;;;8.27;6.07;;;;;;;;;;6293651;22;20147;-63
2021/10/25 11:25:43;;;;;;;7.95;6.18;;;;;;;;;;6292526;22;20182;-63
2021/10/25 11:28:16;;;;;;;8.02;5.97;;;;;;;;;;6276075;22;20171;-63
2021/10/25 11:30:42;;;;;;;8.52;6.05;;;;;;;;;;6275010;22;20139;-62
2021/10/25 11:33:08;;;;;;;7.93;6.55;;;;;;;;;;6273914;22;20407;-63
2021/10/25 11:35:34;;;;;;;7.63;5.72;;;;;;;;;;6274216;22;20170;-62
2021/10/25 11:38:02;;;;;;;8.77;6.53;;;;;;;;;;6274541;22;20181;-63
2021/10/25 11:40:28;;;;;;;8.88;6.97;;;;;;;;;;6275562;22;20144;-62
2021/10/25 11:42:59;;;;;;;9.43;6.45;;;;;;;;;;6276252;22;20169;-62
2021/10/25 11:45:25;;;;;;;7.13;6.10;;;;;;;;;;6276416;22;20139;-62
2021/10/25 11:47:51;;;;;;;8.35;6.28;;;;;;;;;;6276274;22;20167;-62
2021/10/25 11:50:19;;;;;;;7.40;5.80;;;;;;;;;;6276260;22;20423;-62
2021/10/25 11:52:47;;;;;;;10.77;6.65;;;;;;;;;;6276423;22;20618;-62
2021/10/25 11:55:15;;;;;;;9.38;6.32;;;;;;;;;;6276374;22;20190;-62
2021/10/25 11:57:48;;;;;;;7.78;5.63;;;;;;;;;;6276710;22;20495;-62
2021/10/25 12:00:15;;;;;;;6.90;5.55;;;;;;;;;;6276738;22;20193;-62
2021/10/25 12:02:41;;;;;;;7.57;5.72;;;;;;;;;;6277063;22;20230;-62
2021/10/25 12:05:08;;;;;;;9.77;6.28;;;;;;;;;;6276589;22;20179;-62
2021/10/25 12:07:34;;;;;;;9.00;6.80;;;;;;;;;;6276666;22;20194;-62
2021/10/25 12:10:04;;;;;;;9.73;6.40;;;;;;;;;;6276672;22;20140;-62
2021/10/25 12:12:31;;;;;;;7.63;5.78;;;;;;;;;;6275981;22;20147;-62
2021/10/25 12:15:02;;;;;;;9.32;6.80;;;;;;;;;;6276748;22;20144;-62
2021/10/25 12:17:37;;;;;;;8.10;5.80;;;;;;;;;;6276840;22;20142;-63
2021/10/25 12:20:05;;;;;;;10.73;7.13;;;;;;;;;;6276340;22;20602;-63
2021/10/25 12:22:31;;;;;;;11.25;7.88;;;;;;;;;;6276840;22;20238;-62
2021/10/25 12:24:58;;;;;;;9.77;6.22;;;;;;;;;;6276443;22;20178;-62
2021/10/25 12:27:32;;;;;;;9.43;6.35;;;;;;;;;;6276290;22;20179;-62
2021/10/25 12:30:05;;;;;;;7.97;6.15;;;;;;;;;;6276268;22;20450;-62
2021/10/25 12:32:31;;;;;;;9.23;6.53;;;;;;;;;;6276577;22;20143;-63
2021/10/25 12:34:58;;;;;;;9.90;6.38;;;;;;;;;;6276361;22;20192;-63
2021/10/25 12:37:32;;;;;;;9.82;6.28;;;;;;;;;;6276449;22;20148;-63
2021/10/25 12:39:59;;;;;;;11.75;7.07;;;;;;;;;;6276300;22;20218;-63
2021/10/25 12:42:26;;;;;;;8.77;6.60;;;;;;;;;;6275965;22;20139;-63
2021/10/25 12:44:54;;;;;;;10.13;6.60;;;;;;;;;;6277728;22;20175;-63
2021/10/25 12:47:21;;;;;;;8.52;6.68;;;;;;;;;;6278130;22;20171;-63
2021/10/25 12:49:48;;;;;;;7.18;6.35;;;;;;;;;;6277989;22;20140;-62
2021/10/25 12:52:15;;;;;;;9.60;7.25;;;;;;;;;;6277787;22;20218;-63
2021/10/25 12:54:41;;;;;;;9.27;6.47;;;;;;;;;;6278010;22;20139;-63
2021/10/25 12:57:16;;;;;;;9.52;6.70;;;;;;;;;;6278149;22;20162;-62
2021/10/25 12:59:43;;;;;;;9.13;6.90;;;;;;;;;;6277743;22;20155;-62
2021/10/25 13:02:09;;;;;;;9.30;7.13;;;;;;;;;;6277913;22;20177;-62
2021/10/25 13:04:35;;;;;;;9.85;6.85;;;;;;;;;;6277780;22;20171;-62
2021/10/25 13:07:14;;;;;;;8.93;6.63;;;;;;;;;;6277757;22;20183;-62
2021/10/25 13:09:50;;;;;;;10.38;6.97;;;;;;;;;;6278006;22;20143;-62
2021/10/25 13:12:16;;;;;;;13.20;7.25;;;;;;;;;;6277874;22;20143;-62
2021/10/25 13:14:42;;;;;;;9.70;7.32;;;;;;;;;;6277534;22;20139;-62
2021/10/25 13:17:08;;;;;;;10.48;7.65;;;;;;;;;;6277635;22;20158;-62
2021/10/25 13:19:34;;;;;;;8.82;7.25;;;;;;;;;;6277795;22;20147;-62
2021/10/25 13:22:01;;;;;;;15.93;7.57;;;;;;;;;;6277582;22;20479;-62
2021/10/25 13:24:27;;;;;;;9.85;6.95;;;;;;;;;;6277463;22;20144;-62
2021/10/25 13:26:53;;;;;;;8.88;5.93;;;;;;;;;;6277173;22;20245;-62
2021/10/25 13:29:19;;;;;;;9.00;6.85;;;;;;;;;;6277698;22;20139;-62
2021/10/25 13:31:45;;;;;;;9.93;6.00;;;;;;;;;;6277322;22;20140;-62
2021/10/25 13:34:11;;;;;;;6.88;6.07;;;;;;;;;;6277323;22;20185;-62
2021/10/25 13:36:37;;;;;;;10.85;6.22;;;;;;;;;;6277500;22;20494;-62
2021/10/25 13:39:03;;;;;;;8.73;6.90;;;;;;;;;;6277266;22;20171;-62
2021/10/25 13:41:31;;;;;;;9.38;6.55;;;;;;;;;;6277116;22;20594;-62
2021/10/25 13:43:58;;;;;;;11.38;7.32;;;;;;;;;;6277226;22;20148;-62
2021/10/25 13:46:24;;;;;;;8.20;6.53;;;;;;;;;;6277240;22;20155;-62
2021/10/25 13:48:50;;;;;;;9.38;6.53;;;;;;;;;;6277186;22;20151;-62
2021/10/25 13:51:16;;;;;;;9.75;6.90;;;;;;;;;;6277068;22;20189;-62
2021/10/25 13:53:42;;;;;;;8.55;6.68;;;;;;;;;;6277473;22;20178;-62
2021/10/25 13:56:09;;;;;;;10.93;6.93;;;;;;;;;;6277103;22;20158;-62
2021/10/25 13:58:35;;;;;;;8.45;7.10;;;;;;;;;;6250306;22;20152;-62
2021/10/25 14:01:02;;;;;;;8.38;6.85;;;;;;;;;;6276905;22;20177;-62
2021/10/25 14:03:28;;;;;;;10.20;7.43;;;;;;;;;;6277356;22;20235;-63
2021/10/25 14:05:54;;;;;;;10.60;7.47;;;;;;;;;;6277368;22;20606;-62
2021/10/25 14:08:20;;;;;;;10.02;6.75;;;;;;;;;;6277232;22;20179;-62
2021/10/25 14:10:49;;;;;;;9.35;6.55;;;;;;;;;;6276836;22;20486;-62
2021/10/25 14:13:42;;;;;;;8.82;6.25;;;;;;;;;;6276921;22;20194;-62
2021/10/25 14:18:45;;;;;;;7.47;6.25;;;;;;;;;;6287240;22;20485;-62
2021/10/25 14:21:15;;;;;;;9.23;5.88;;;;;;;;;;6276654;22;20147;-62
2021/10/25 14:23:40;;;;;;;9.18;6.10;;;;;;;;;;6276961;22;20739;-62
2021/10/25 14:26:07;;;;;;;8.68;6.47;;;;;;;;;;6276857;22;20175;-61
2021/10/25 14:28:33;;;;;;;7.18;5.78;;;;;;;;;;6276978;22;20618;-61
2021/10/25 14:31:00;;;;;;;7.50;5.85;;;;;;;;;;6276783;22;20195;-62
2021/10/25 14:33:27;;;;;;;8.93;6.38;;;;;;;;;;6277303;22;20144;-62
2021/10/25 14:35:53;;;;;;;9.10;6.93;;;;;;;;;;6277262;22;20155;-62
2021/10/25 14:38:43;;;;;;;7.75;6.13;;;;;;;;;;6277288;22;20170;-61
2021/10/25 14:41:29;;;;;;;8.32;6.40;;;;;;;;;;6276963;22;20156;-62
2021/10/25 14:43:59;;;;;;;8.55;6.35;;;;;;;;;;6277533;22;20166;-62
2021/10/25 14:53:17;;;;;;;10.00;6.40;;;;;;;;;;6287453;22;20136;-62
2021/10/25 14:55:11;;;;;;;9.35;6.38;;;;;;;;;;6183408;23;20504;-62
2021/10/25 14:57:37;;;;;;;7.93;6.50;;;;;;;;;;6263240;22;20154;-62
2021/10/25 15:00:04;;;;;;;9.00;6.45;;;;;;;;;;6276590;22;20222;-63
2021/10/25 15:02:30;;;;;;;9.13;5.88;;;;;;;;;;6276268;22;20479;-62
2021/10/25 15:04:59;;;;;;;10.35;6.43;;;;;;;;;;6276543;22;20143;-61
2021/10/25 15:07:25;;;;;;;8.52;6.22;;;;;;;;;;6276270;22;20617;-62
2021/10/25 15:09:52;;;;;;;10.75;6.68;;;;;;;;;;6276654;22;20551;-62
2021/10/25 15:12:21;;;;;;;9.65;6.90;;;;;;;;;;6277087;22;20481;-62
2021/10/25 15:14:47;;;;;;;7.65;5.93;;;;;;;;;;6276853;22;20144;-61
2021/10/25 15:17:13;;;;;;;9.70;6.22;;;;;;;;;;6276909;22;20154;-61
2021/10/25 15:19:40;;;;;;;8.90;6.95;;;;;;;;;;6276816;22;20148;-63
2021/10/25 15:22:07;;;;;;;11.05;6.70;;;;;;;;;;6276988;22;20228;-63
2021/10/25 15:24:36;;;;;;;10.15;6.72;;;;;;;;;;6277228;22;20147;-62
2021/10/25 15:27:02;;;;;;;7.95;6.55;;;;;;;;;;6276886;22;20210;-61
2021/10/25 15:29:28;;;;;;;8.15;6.28;;;;;;;;;;6277036;22;20146;-61
2021/10/25 15:31:54;;;;;;;7.35;6.43;;;;;;;;;;6277163;22;20587;-61
2021/10/25 15:34:19;;;;;;;8.30;6.38;;;;;;;;;;6276915;22;20174;-61
2021/10/25 15:36:45;;;;;;;7.65;6.30;;;;;;;;;;6276638;22;20215;-61
2021/10/25 15:39:11;;;;;;;11.07;6.65;;;;;;;;;;6276694;22;20551;-61
2021/10/25 15:41:37;;;;;;;9.60;6.68;;;;;;;;;;6277087;22;20161;-61
2021/10/25 15:44:04;;;;;;;9.05;6.80;;;;;;;;;;6276307;22;20139;-61
2021/10/25 15:46:30;;;;;;;10.65;7.22;;;;;;;;;;6276016;22;20567;-61
2021/10/25 15:48:56;;;;;;;10.68;6.85;;;;;;;;;;6276520;22;20154;-61
2021/10/25 15:51:22;;;;;;;11.38;6.93;;;;;;;;;;6276678;22;20151;-61
2021/10/25 15:53:48;;;;;;;10.70;7.40;;;;;;;;;;6277057;22;20201;-63
2021/10/25 15:56:14;;;;;;;11.65;7.50;;;;;;;;;;6276860;22;20147;-61
2021/10/25 15:58:40;;;;;;;11.43;7.43;;;;;;;;;;6277284;22;20521;-63
2021/10/25 16:01:06;;;;;;;8.35;7.10;;;;;;;;;;6276417;22;20139;-62
2021/10/25 16:03:32;;;;;;;9.15;7.60;;;;;;;;;;6276530;22;20476;-63
2021/10/25 16:05:59;;;;;;;10.52;8.25;;;;;;;;;;6276615;22;20139;-63
2021/10/25 16:08:25;;;;;;;10.68;7.88;;;;;;;;;;6276566;22;20197;-63